Ancramdale, NY

6:36 PM EST on January 27, 2015 (GMT -0500)
Pine Plains | Change Station
CLOSE
Current Station
Personal Weather Station
Location: Pine Plains, NY
Elevation: 640 ft
Nearby Weather Stations
Active Advisory: Winter Weather Advisory Active Notice: Public Information Statement

Elev 640 ft 41.96 °N, 73.63 °W | Updated 3 seconds ago

Overcast
Overcast
10.8 °F
Feels Like 11 °F
N
1.1
Wind Variable Wind from SE
Gusts 9.0 mph

Today
High -- | Low -- °F
--% Chance of Precip.
Yesterday
High -- | Low -- °F
Precip. -- in
7:12 AM 5:02 PM
First Quarter, 58% visible
Pressure 29.74 in
Visibility 10.0 miles
Clouds Few 8000 ft
Windchill 11 °F
Dew Point 5 °F
Humidity 77%
Rainfall 0.00 in
Snow Depth Not available.
UV 0 out of 12
Pollen .10 out of 12
Air Quality Not available.
Flu Activity Not available.
METAR KPOU 272253Z 01011G18KT 10SM FEW080 M08/M13 A2974 RMK AO2 SLP069 T10781128

More Conditions Fewer Conditions

Pressure 29.74 in
Visibility 10.0 miles
Clouds Few 8000 ft
Windchill 11 °F
Dew Point 5 °F
Humidity 77%
Rainfall 0.00 in
Snow Depth Not available.
UV 0 out of 12
Pollen .10 out of 12
Air Quality Not available.
Flu Activity Not available.
METAR KPOU 272253Z 01011G18KT 10SM FEW080 M08/M13 A2974 RMK AO2 SLP069 T10781128

More Conditions Fewer Conditions

10-Day Weather Forecast

Almanac

Astronomy

Jan. 27, 2015 Rise Set
Actual Time
Civil Twilight
Nautical Twilight
Astronomical Twilight
Moon
Length of Visible Light
Length of Day
Tomorrow will be .
, % of the Moon is Illuminated

Today's Extremes

State Highs State Lows

Community

WunderPhotos

Upload Photos

1,790,982 photos uploaded!

WunderBlogs® & News

Nearby

Air Quality

  Air Quality AQ Index Pollutant
Not available.

Snow Depth

Station Depth Elevation

Earthquake Activity

City Distance Mag. Time & Date
Minimum magnitude displayed is 2.5.

Coastal Water Temperatures

Place Temperature

Nearby Weather Stations